Rutland, ND (58067)

10:15 PM CST on February 13, 2016 (GMT -0600)
joes ag supply | | Change Station
CLOSE
Current Station
Personal Weather Station
Location: Havana, ND
Elevation: 1276 ft
Nearby Weather Stations
Active Advisory: Winter Weather Advisory

Elev 1276 ft 45.95 °N, 97.62 °W | Updated 2 seconds ago

Overcast
Overcast
14.7 °F
Feels Like -3 °F
N
20.6
Wind Variable Wind from SE
Gusts 22.4 mph

Today
High -- | Low -- °F
--% Chance of Precip.
Yesterday
High -- | Low -- °F
Precip. -- in
Pressure 30.08 in
Visibility 10.0 miles
Clouds Mostly Cloudy 1900 ft
Overcast 2900 ft
Windchill -3 °F
Dew Point 9 °F
Humidity 77%
Rainfall 0.00 in
Snow Depth Not available.
7:36 AM 5:52 PM
Waxing Crescent, 37% visible
METAR KGWR 140355Z AUTO 14015KT 10SM BKN019 OVC029 M10/M14 A3008 RMK AO1
Pressure 30.08 in
Visibility 10.0 miles
Clouds Mostly Cloudy 1900 ft
Overcast 2900 ft
Windchill -3 °F
Dew Point 9 °F
Humidity 77%
Rainfall 0.00 in
Snow Depth Not available.
7:36 AM 5:52 PM
Waxing Crescent, 37% visible
METAR KGWR 140355Z AUTO 14015KT 10SM BKN019 OVC029 M10/M14 A3008 RMK AO1

10-Day Weather Forecast

Almanac

Astronomy

Feb. 13, 2016 Rise Set
Actual Time
Civil Twilight
Nautical Twilight
Astronomical Twilight
Moon
Length of Visible Light
Length of Day
Tomorrow will be .
, % of the Moon is Illuminated

Today's Extremes

State Highs State Lows

Community

WunderPhotos

Upload Photos

1,892,743 photos uploaded!

WunderBlog® & News

Nearby

Air Quality

  Air Quality AQ Index Pollutant
Not available.

Snow Depth

Station Depth Elevation

Earthquake Activity

City Distance Mag. Time & Date
Minimum magnitude displayed is 2.5.

Coastal Water Temperatures

Place Temperature

Stations

Nearby Weather Stations

Station Location Temp. Windchill Dew Point Humidity Wind Precip. Elev Updated Type
                   

Watches & Warnings

Winter Weather Advisory
Issued: 9:47 PM CST Feb. 13, 2016 – National Weather Service

... Winter Weather Advisory remains in effect until noon CST
Sunday...

* timing... expect snow to reach Fargo by midnight... .diminishing
around noon Sunday.

* Precipitation rates... the heaviest snowfall rates will occur
between 10 am and 6 am Sunday.

* Snow accumulations... total snow accumulations of 2 to 4
inches... with localized amounts up to 5 inches... are expected.

* Winds / visibilities... look for reduced visibilities at times as
low as one half mile.

* Impacts... plan on slippery Road conditions.

Precautionary/preparedness actions...

A Winter Weather Advisory for snow means periods of snow will
cause primarily travel difficulties. Be prepared for snow covered
roads and limited visibilities... and use caution while driving.
The latest Road conditions for the state you are calling from can
be obtained by calling 5 1 1.


Speicher